Plainfield, Illinois
Current Conditions -  °F | °C
As of 8:15 AM on Thursday 18 Dec 2014 (Local Time) from KLOT Reporting Station
Overcast Overcast  
Wind Chill: 24°   Ceiling: 1800
Heat Index: 24°   Visibility: 10mi
Dew Point: 17°   Wind: 3mph
Humidity: 75%   Direction: 260°W
Pressure: 30.3"   Gusts: NA
Location:  41.62°N, 88.2°W
Report Text: KLOT 181415Z AUTO 26003KT 10SM OVC018 M05/M08 A3030 RMK AO2 T10461084
Loading
Personal Weather Stations






























Interactive Weather Map New forecast layout! Learn more

10-Day Weather Forecast

Advertisements
Track Severe Weather on mobile